createdAt,value
2023-01-12T00:01:16.003Z,125.10
2023-01-12T00:04:18.335Z,122.90
2023-01-12T00:07:21.290Z,129.10
2023-01-12T00:10:22.861Z,130.10
2023-01-12T00:13:24.574Z,122.30
2023-01-12T00:16:27.509Z,125.00
2023-01-12T00:19:29.185Z,125.40
2023-01-12T00:22:30.911Z,117.70
2023-01-12T00:25:32.429Z,126.40
2023-01-12T00:28:35.238Z,115.00
2023-01-12T00:31:36.844Z,126.70
2023-01-12T00:34:38.436Z,124.70
2023-01-12T00:37:39.982Z,120.30
2023-01-12T00:40:41.567Z,117.80
2023-01-12T00:43:43.345Z,130.90
2023-01-12T00:49:46.963Z,141.40
2023-01-12T00:52:48.640Z,135.70
2023-01-12T00:55:50.246Z,114.30
2023-01-12T00:58:51.872Z,105.20
2023-01-12T01:01:53.505Z,109.20
2023-01-12T01:04:55.599Z,111.30
2023-01-12T01:07:57.724Z,125.50
2023-01-12T01:14:08.859Z,129.10
2023-01-12T01:17:10.753Z,125.10
2023-01-12T01:20:12.700Z,130.40
2023-01-12T01:23:14.439Z,135.10
2023-01-12T01:26:19.671Z,144.00
2023-01-12T01:29:21.211Z,140.40
2023-01-12T01:32:23.223Z,146.60
2023-01-12T01:35:24.837Z,133.90
2023-01-12T01:38:26.870Z,140.00
2023-01-12T01:41:33.114Z,136.40
2023-01-12T01:44:43.621Z,138.60
2023-01-12T01:47:51.632Z,120.70
2023-01-12T01:50:59.578Z,124.90
2023-01-12T01:54:03.410Z,120.90
2023-01-12T01:57:06.161Z,104.80
2023-01-12T02:00:09.799Z,107.50
2023-01-12T02:03:12.045Z,109.10
2023-01-12T02:06:14.518Z,107.50
2023-01-12T02:09:23.103Z,107.30
2023-01-12T02:12:24.795Z,112.60
2023-01-12T02:15:28.872Z,114.50
2023-01-12T02:18:39.629Z,111.40
2023-01-12T02:22:10.822Z,113.10
2023-01-12T02:25:44.087Z,113.40
2023-01-12T02:29:09.208Z,103.00
2023-01-12T02:32:29.303Z,103.50
2023-01-12T02:35:49.284Z,100.20
2023-01-12T02:39:14.340Z,106.50
2023-01-12T02:42:40.484Z,108.00
2023-01-12T02:45:55.236Z,108.90
2023-01-12T02:49:03.097Z,107.90
2023-01-12T02:52:09.243Z,98.90
2023-01-12T02:55:13.217Z,99.80
2023-01-12T02:58:17.529Z,103.90
2023-01-12T03:01:20.167Z,97.50
2023-01-12T03:04:23.290Z,102.40
2023-01-12T03:07:28.996Z,100.60
2023-01-12T03:10:41.943Z,102.70
2023-01-12T03:13:47.780Z,96.20
2023-01-12T03:16:50.151Z,92.40
2023-01-12T03:19:53.480Z,100.30
2023-01-12T03:23:01.154Z,93.60
2023-01-12T03:26:03.568Z,93.20
2023-01-12T03:29:26.194Z,82.70
2023-01-12T03:32:28.100Z,80.10
2023-01-12T03:35:33.108Z,85.10
2023-01-12T03:38:50.693Z,82.00
2023-01-12T03:42:04.073Z,87.70
2023-01-12T03:45:18.519Z,87.10
2023-01-12T03:48:46.867Z,85.90
2023-01-12T03:51:49.281Z,82.10
2023-01-12T03:54:52.592Z,77.80
2023-01-12T03:57:54.298Z,77.00
2023-01-12T04:03:57.505Z,76.50
2023-01-12T04:07:01.075Z,81.60
2023-01-12T04:10:03.570Z,85.80
2023-01-12T04:13:05.268Z,87.80
2023-01-12T04:19:08.826Z,88.30
2023-01-12T04:22:14.768Z,81.60
2023-01-12T04:25:22.792Z,91.50
2023-01-12T04:28:24.488Z,83.50
2023-01-12T04:34:27.666Z,90.00
2023-01-12T04:37:32.512Z,89.60
2023-01-12T04:40:34.173Z,90.40
2023-01-12T04:46:37.492Z,90.90
2023-01-12T04:49:39.126Z,76.40
2023-01-12T04:52:40.794Z,82.10
2023-01-12T04:55:43.424Z,84.50
2023-01-12T04:58:45.865Z,88.40
2023-01-12T05:04:49.451Z,90.30
2023-01-12T05:07:51.088Z,102.20
2023-01-12T05:10:54.534Z,89.80
2023-01-12T05:13:57.114Z,97.30
2023-01-12T05:16:58.834Z,96.80
2023-01-12T05:23:02.941Z,99.70
2023-01-12T05:29:08.055Z,97.80
2023-01-12T05:32:09.673Z,101.20
2023-01-12T05:35:11.388Z,98.20
2023-01-12T05:41:14.694Z,107.30
2023-01-12T05:50:19.914Z,95.30
2023-01-12T05:53:21.896Z,89.70
2023-01-12T05:56:26.186Z,84.50
2023-01-12T06:02:47.088Z,85.00
2023-01-12T06:08:58.184Z,85.40
2023-01-12T06:11:59.793Z,85.20
2023-01-12T06:15:01.461Z,77.00
2023-01-12T06:21:05.817Z,75.20
2023-01-12T06:24:07.689Z,71.90
2023-01-12T06:27:09.436Z,70.20
2023-01-12T06:30:11.867Z,70.90
2023-01-12T06:33:13.419Z,70.70
2023-01-12T06:39:16.566Z,72.30
2023-01-12T06:42:18.231Z,73.90
2023-01-12T06:45:19.764Z,78.40
2023-01-12T06:48:21.724Z,74.20
2023-01-12T06:51:23.521Z,80.00
2023-01-12T06:54:25.283Z,75.70
2023-01-12T07:00:28.394Z,75.60
2023-01-12T07:03:30.394Z,74.10
2023-01-12T07:06:32.017Z,66.00
2023-01-12T07:09:34.013Z,68.60
2023-01-12T07:12:35.676Z,76.30
2023-01-12T07:18:38.927Z,63.10
2023-01-12T07:21:40.543Z,67.30
2023-01-12T07:24:42.239Z,57.80
2023-01-12T07:30:52.378Z,60.10
2023-01-12T07:33:55.101Z,62.80
2023-01-12T07:36:57.862Z,56.20
2023-01-12T07:43:02.780Z,56.90
2023-01-12T07:46:04.659Z,52.90
2023-01-12T07:49:06.321Z,56.90
2023-01-12T07:55:13.308Z,54.00
2023-01-12T07:58:14.868Z,52.30
2023-01-12T08:04:18.374Z,48.30
2023-01-12T08:07:23.303Z,52.70
2023-01-12T08:10:25.201Z,50.50
2023-01-12T08:13:26.838Z,52.20
2023-01-12T08:16:33.095Z,52.30
2023-01-12T08:19:42.727Z,53.50
2023-01-12T08:22:47.819Z,52.10
2023-01-12T08:25:54.985Z,55.90
2023-01-12T08:29:02.234Z,54.70
2023-01-12T08:32:05.759Z,56.30
2023-01-12T08:35:08.237Z,61.20
2023-01-12T08:38:10.011Z,62.20
2023-01-12T08:41:11.598Z,63.50
2023-01-12T08:47:18.206Z,57.30
2023-01-12T08:50:19.993Z,61.70
2023-01-12T08:53:21.601Z,54.90
2023-01-12T08:59:24.916Z,52.30
2023-01-12T09:08:29.929Z,45.90
2023-01-12T09:14:36.326Z,44.90
2023-01-12T09:17:37.883Z,39.90
2023-01-12T09:23:42.027Z,38.30
2023-01-12T09:26:45.966Z,39.50
2023-01-12T09:29:47.619Z,40.00
2023-01-12T09:32:49.221Z,35.70
2023-01-12T09:35:50.865Z,33.40
2023-01-12T09:38:52.637Z,30.60
2023-01-12T09:41:54.317Z,25.50
2023-01-12T09:44:55.939Z,23.20
2023-01-12T09:47:58.389Z,23.20
2023-01-12T09:51:11.963Z,24.70
2023-01-12T09:54:13.559Z,24.80
2023-01-12T09:57:43.032Z,24.90
2023-01-12T10:00:50.159Z,22.60
2023-01-12T10:03:51.820Z,23.10
2023-01-12T10:06:54.594Z,23.60
2023-01-12T10:09:56.666Z,24.60
2023-01-12T10:13:03.109Z,23.30
2023-01-12T10:16:08.217Z,23.80
2023-01-12T10:19:27.311Z,22.10
2023-01-12T10:22:44.157Z,24.20
2023-01-12T10:25:45.803Z,21.60
2023-01-12T10:28:48.613Z,21.70
2023-01-12T10:31:50.315Z,20.00
2023-01-12T10:34:52.532Z,19.50
2023-01-12T10:37:55.990Z,20.40
2023-01-12T10:41:12.144Z,19.60
2023-01-12T10:44:16.027Z,17.50
2023-01-12T10:47:18.410Z,17.70
2023-01-12T10:50:28.878Z,16.80
2023-01-12T10:53:37.646Z,16.60
2023-01-12T10:56:42.174Z,17.20
2023-01-12T10:59:50.942Z,17.30
2023-01-12T11:02:53.004Z,17.60
2023-01-12T11:05:54.779Z,18.40
2023-01-12T11:08:57.104Z,16.30
2023-01-12T11:12:01.027Z,17.30
2023-01-12T11:15:12.072Z,20.00
2023-01-12T11:18:28.789Z,18.90
2023-01-12T11:21:35.405Z,18.70
2023-01-12T11:24:49.618Z,18.60
2023-01-12T11:28:31.384Z,18.90
2023-01-12T11:31:37.914Z,19.90
2023-01-12T11:34:51.803Z,18.70
2023-01-12T11:37:55.018Z,18.80
2023-01-12T11:40:57.615Z,18.10
2023-01-12T11:44:04.025Z,16.40
2023-01-12T11:47:13.470Z,16.30
2023-01-12T11:50:24.140Z,16.00
2023-01-12T11:53:25.996Z,18.10
2023-01-12T11:56:29.127Z,16.40
2023-01-12T11:59:42.664Z,16.00
2023-01-12T12:03:37.215Z,16.80
2023-01-12T12:06:48.984Z,13.70
2023-01-12T12:09:57.654Z,15.40
2023-01-12T12:13:08.384Z,16.20
2023-01-12T12:16:25.109Z,16.60
2023-01-12T12:19:45.688Z,18.30
2023-01-12T12:23:00.844Z,22.40
2023-01-12T12:26:12.019Z,20.30
2023-01-12T12:29:35.354Z,18.50
2023-01-12T12:32:44.057Z,19.00
2023-01-12T12:36:03.899Z,20.30
2023-01-12T12:39:25.740Z,19.50
2023-01-12T12:42:40.839Z,21.90
2023-01-12T12:46:05.822Z,18.60
2023-01-12T12:49:14.534Z,17.80
2023-01-12T12:52:16.282Z,19.80
2023-01-12T12:55:18.046Z,18.10
2023-01-12T12:58:22.705Z,20.00
2023-01-12T13:01:36.235Z,17.30
2023-01-12T13:04:43.839Z,18.40
2023-01-12T13:07:52.099Z,16.00
2023-01-12T13:10:57.889Z,18.60
2023-01-12T13:14:01.342Z,16.70
2023-01-12T13:17:20.447Z,17.80
2023-01-12T13:20:34.546Z,20.40
2023-01-12T13:23:47.590Z,20.80
2023-01-12T13:26:49.203Z,18.40
2023-01-12T13:29:50.967Z,17.40
2023-01-12T13:33:20.428Z,13.10
2023-01-12T13:36:30.764Z,13.70
2023-01-12T13:39:34.957Z,16.70
2023-01-12T13:42:36.755Z,16.00
2023-01-12T13:45:39.570Z,21.30
2023-01-12T13:48:47.739Z,20.40
2023-01-12T13:51:58.717Z,19.00
2023-01-12T13:55:00.564Z,18.00
2023-01-12T13:58:06.116Z,15.80
2023-01-12T14:01:17.551Z,16.40
2023-01-12T14:04:37.892Z,17.00
2023-01-12T14:07:51.624Z,33.10
2023-01-12T14:11:12.312Z,25.90
2023-01-12T14:14:32.921Z,28.00
2023-01-12T14:17:34.653Z,19.30
2023-01-12T14:20:42.046Z,13.80
2023-01-12T14:23:43.713Z,19.10
2023-01-12T14:26:45.521Z,16.50
2023-01-12T14:29:47.189Z,17.50
2023-01-12T14:38:53.903Z,18.60
2023-01-12T14:41:56.549Z,27.00
2023-01-12T14:44:58.211Z,22.00
2023-01-12T14:48:38.732Z,21.00
2023-01-12T14:51:51.726Z,19.70
2023-01-12T14:54:53.468Z,22.50
2023-01-12T14:57:57.161Z,21.70
2023-01-12T15:00:58.821Z,24.20
2023-01-12T15:04:00.788Z,18.80
2023-01-12T15:07:06.433Z,23.30
2023-01-12T15:10:14.579Z,23.30
2023-01-12T15:13:30.776Z,25.90
2023-01-12T15:16:32.463Z,24.80
2023-01-12T15:22:35.497Z,22.50
2023-01-12T15:25:39.400Z,21.60
2023-01-12T15:28:41.009Z,23.30
2023-01-12T15:34:44.100Z,26.70
2023-01-12T15:37:45.670Z,33.20
2023-01-12T15:40:47.638Z,35.10
2023-01-12T15:43:49.329Z,42.10
2023-01-12T15:49:52.404Z,29.30
2023-01-12T15:52:53.934Z,22.20
2023-01-12T15:55:55.484Z,24.10
2023-01-12T15:58:57.074Z,25.80
2023-01-12T16:01:58.984Z,26.30
2023-01-12T16:05:01.550Z,27.80
2023-01-12T16:08:03.358Z,28.50
2023-01-12T16:17:08.749Z,32.80
2023-01-12T16:20:11.130Z,29.50
2023-01-12T16:23:12.806Z,33.90
2023-01-12T16:29:16.052Z,55.00
2023-01-12T16:32:18.616Z,43.90
2023-01-12T16:35:20.261Z,36.70
2023-01-12T16:41:23.403Z,33.80
2023-01-12T16:47:26.776Z,42.60
2023-01-12T16:53:29.900Z,45.10
2023-01-12T16:56:31.512Z,38.30
2023-01-12T16:59:33.170Z,30.30
2023-01-12T17:05:41.225Z,31.80
2023-01-12T17:08:43.203Z,26.90
2023-01-12T17:11:44.925Z,26.70
2023-01-12T17:17:48.975Z,32.00
2023-01-12T17:21:01.251Z,30.00
2023-01-12T17:24:02.941Z,28.70
2023-01-12T17:30:06.846Z,29.60
2023-01-12T17:33:08.580Z,31.10
2023-01-12T17:39:12.399Z,33.30
2023-01-12T17:45:16.246Z,37.50
2023-01-12T17:48:18.111Z,33.80
2023-01-12T17:54:21.185Z,31.20
2023-01-12T18:00:24.491Z,32.20
2023-01-12T18:03:26.213Z,34.60
2023-01-12T18:09:29.684Z,32.90
2023-01-12T18:15:32.916Z,36.90
2023-01-12T18:21:36.071Z,31.20
2023-01-12T18:24:37.768Z,36.90
2023-01-12T18:27:39.280Z,36.90
2023-01-12T18:30:41.110Z,34.10
2023-01-12T18:33:43.481Z,35.90
2023-01-12T18:36:45.619Z,31.90
2023-01-12T18:39:49.165Z,34.70
2023-01-12T18:42:50.699Z,32.30
2023-01-12T18:45:52.295Z,32.00
2023-01-12T18:48:53.857Z,34.60
2023-01-12T18:51:56.945Z,31.40
2023-01-12T18:54:58.680Z,30.80
2023-01-12T18:58:00.564Z,32.40
2023-01-12T19:04:04.820Z,31.80
2023-01-12T19:07:07.547Z,31.50
2023-01-12T19:10:09.677Z,29.70
2023-01-12T19:13:11.583Z,29.40
2023-01-12T19:16:13.858Z,31.50
2023-01-12T19:19:15.513Z,33.80
2023-01-12T19:22:17.269Z,36.80
2023-01-12T19:28:21.561Z,37.00
2023-01-12T19:31:23.268Z,35.00
2023-01-12T19:37:26.531Z,36.60
2023-01-12T19:40:28.117Z,36.00
2023-01-12T19:43:29.664Z,38.50
2023-01-12T19:46:32.391Z,35.50
2023-01-12T19:49:34.122Z,32.80
2023-01-12T19:55:41.566Z,32.80
2023-01-12T19:58:43.234Z,30.60
2023-01-12T20:04:46.909Z,31.20
2023-01-12T20:07:52.930Z,32.10
2023-01-12T20:10:56.009Z,31.50
2023-01-12T20:13:57.894Z,30.80
2023-01-12T20:16:59.657Z,31.40
2023-01-12T20:20:02.678Z,28.30
2023-01-12T20:23:04.243Z,29.00
2023-01-12T20:26:09.228Z,28.90
2023-01-12T20:29:10.740Z,32.00
2023-01-12T20:35:18.696Z,33.10
2023-01-12T20:38:20.659Z,27.50
2023-01-12T20:41:22.227Z,30.00
2023-01-12T20:44:23.829Z,30.20
2023-01-12T20:47:27.012Z,28.50
2023-01-12T20:50:28.566Z,31.70
2023-01-12T20:53:30.494Z,32.10
2023-01-12T20:56:32.176Z,29.40
2023-01-12T21:02:35.147Z,27.30
2023-01-12T21:05:41.043Z,24.40
2023-01-12T21:08:44.375Z,32.00
2023-01-12T21:11:46.222Z,29.60
2023-01-12T21:14:48.085Z,28.20
2023-01-12T21:17:49.713Z,25.60
2023-01-12T21:23:52.961Z,23.90
2023-01-12T21:26:55.319Z,31.70
2023-01-12T21:29:57.815Z,28.70
2023-01-12T21:32:59.358Z,28.80
2023-01-12T21:36:01.561Z,28.80
2023-01-12T21:39:03.647Z,28.50
2023-01-12T21:42:05.338Z,34.30
2023-01-12T21:48:09.664Z,35.50
2023-01-12T21:51:13.838Z,33.50
2023-01-12T21:54:15.510Z,30.30
2023-01-12T22:00:19.094Z,23.40
2023-01-12T22:03:24.387Z,21.30
2023-01-12T22:06:25.940Z,22.70
2023-01-12T22:09:27.708Z,27.40
2023-01-12T22:12:29.530Z,28.00
2023-01-12T22:18:33.252Z,22.70
2023-01-12T22:21:35.075Z,24.60
2023-01-12T22:24:36.764Z,26.60
2023-01-12T22:30:40.129Z,26.60
2023-01-12T22:33:50.836Z,30.00
2023-01-12T22:36:52.374Z,25.20
2023-01-12T22:39:54.640Z,27.00
2023-01-12T22:42:56.208Z,23.30
2023-01-12T22:45:57.951Z,26.40
2023-01-12T22:48:59.733Z,27.70
2023-01-12T22:52:02.712Z,27.70
2023-01-12T22:55:05.356Z,26.20
2023-01-12T22:58:06.912Z,23.50
2023-01-12T23:01:09.790Z,25.70
2023-01-12T23:04:11.486Z,21.60
2023-01-12T23:10:15.401Z,21.80
2023-01-12T23:13:20.155Z,23.80
2023-01-12T23:16:22.016Z,21.50
2023-01-12T23:19:23.912Z,20.50
2023-01-12T23:22:25.657Z,23.50
2023-01-12T23:28:29.221Z,21.50
2023-01-12T23:31:32.759Z,20.10
2023-01-12T23:34:54.380Z,18.70
2023-01-12T23:37:56.161Z,19.30
2023-01-12T23:40:57.963Z,21.00
2023-01-12T23:44:01.507Z,20.90
2023-01-12T23:47:03.245Z,20.70
2023-01-12T23:53:06.747Z,20.90
2023-01-12T23:56:10.907Z,14.50
2023-01-12T23:59:12.724Z,15.70
